createdAt,value
2022-11-17T05:16:04.815Z,89.66
2022-11-17T05:18:31.235Z,89.02
2022-11-17T05:21:10.054Z,90.01
2022-11-17T05:23:58.391Z,88.77
2022-11-17T05:26:35.220Z,90.09
2022-11-17T05:29:07.524Z,89.23
2022-11-17T05:31:40.063Z,90.38
2022-11-17T05:34:12.703Z,90.39
2022-11-17T05:36:52.154Z,91.45
2022-11-17T05:39:38.429Z,90.92
2022-11-17T05:42:16.221Z,90.90
2022-11-17T05:44:42.756Z,91.30
2022-11-17T05:48:03.343Z,92.15
2022-11-17T05:50:30.052Z,94.06
2022-11-17T05:53:18.216Z,94.28
2022-11-17T05:56:51.826Z,94.68
2022-11-17T05:59:59.649Z,94.06
2022-11-17T06:02:38.539Z,94.06
2022-11-17T06:05:41.516Z,93.90
2022-11-17T06:08:10.779Z,94.67
2022-11-17T06:10:39.098Z,94.46
2022-11-17T06:13:31.263Z,93.75
2022-11-17T06:16:07.850Z,93.55
2022-11-17T06:18:49.231Z,94.17
2022-11-17T06:21:18.469Z,94.44
2022-11-17T06:23:48.860Z,94.04
2022-11-17T06:26:19.678Z,93.98
2022-11-17T06:28:52.061Z,94.04
2022-11-17T06:31:28.190Z,94.43
2022-11-17T06:33:55.109Z,94.45
2022-11-17T06:36:21.974Z,94.41
2022-11-17T06:38:48.906Z,93.91
2022-11-17T06:41:15.499Z,94.05
2022-11-17T06:43:42.237Z,93.83
2022-11-17T06:46:08.863Z,94.26
2022-11-17T06:48:36.186Z,93.74
2022-11-17T06:51:05.155Z,93.74
2022-11-17T06:54:23.875Z,94.00
2022-11-17T06:56:51.492Z,93.57
2022-11-17T06:59:18.053Z,93.84
2022-11-17T07:01:48.288Z,94.19
2022-11-17T07:07:28.445Z,94.67
2022-11-17T07:14:01.511Z,95.37
2022-11-17T07:16:47.596Z,95.94
2022-11-17T07:19:34.686Z,95.53
2022-11-17T07:22:04.123Z,95.86
2022-11-17T07:24:45.477Z,96.30
2022-11-17T07:27:22.546Z,95.81
2022-11-17T07:30:49.266Z,94.70
2022-11-17T07:37:22.159Z,94.04
2022-11-17T07:40:03.087Z,94.42
2022-11-17T07:45:51.327Z,93.95
2022-11-17T07:48:19.581Z,93.55
2022-11-17T07:50:46.261Z,92.90
2022-11-17T07:53:36.152Z,93.34
2022-11-17T07:56:07.911Z,93.23
2022-11-17T07:58:35.031Z,92.68
2022-11-17T08:03:01.708Z,92.18
2022-11-17T08:05:53.382Z,93.11
2022-11-17T08:25:00.916Z,93.22
2022-11-17T08:32:39.306Z,92.82
2022-11-17T08:38:32.141Z,92.88
2022-11-17T08:41:29.250Z,93.78
2022-11-17T08:44:01.308Z,93.16
2022-11-17T08:47:40.957Z,93.14
2022-11-17T08:58:12.039Z,90.64
2022-11-17T09:05:13.999Z,89.70
2022-11-17T09:11:11.235Z,90.27
2022-11-17T09:13:42.274Z,91.35
2022-11-17T09:16:25.839Z,92.29
2022-11-17T09:19:19.518Z,92.24
2022-11-17T09:21:46.114Z,93.56
2022-11-17T09:24:12.637Z,93.61
2022-11-17T09:26:41.596Z,95.27
2022-11-17T09:29:10.337Z,94.64
2022-11-17T09:31:37.313Z,94.27
2022-11-17T09:34:06.066Z,94.16
2022-11-17T09:36:50.843Z,93.17
2022-11-17T09:39:17.378Z,93.52
2022-11-17T09:41:46.928Z,94.15
2022-11-17T09:44:31.368Z,93.98
2022-11-17T09:47:34.968Z,94.02
2022-11-17T09:50:13.611Z,94.11
2022-11-17T09:53:12.854Z,93.42
2022-11-17T09:55:45.420Z,93.41
2022-11-17T09:58:26.347Z,94.28
2022-11-17T10:00:57.121Z,94.99
2022-11-17T10:03:59.109Z,94.45
2022-11-17T10:06:28.869Z,94.14
2022-11-17T10:09:00.826Z,91.98
2022-11-17T10:11:36.241Z,91.09
2022-11-17T10:14:22.278Z,89.41
2022-11-17T10:16:57.027Z,89.60
2022-11-17T10:19:43.894Z,89.90
2022-11-17T10:22:36.917Z,90.12
2022-11-17T10:25:20.228Z,90.32
2022-11-17T10:27:53.245Z,89.92
2022-11-17T10:30:19.817Z,89.83
2022-11-17T10:32:54.990Z,89.79
2022-11-17T10:35:27.425Z,89.90
2022-11-17T10:38:10.691Z,86.28
2022-11-17T10:40:40.328Z,85.17
2022-11-17T10:43:13.155Z,85.13
2022-11-17T10:45:54.909Z,86.12
2022-11-17T10:48:29.653Z,87.73
2022-11-17T10:51:20.656Z,87.62
2022-11-17T10:54:19.416Z,86.61
2022-11-17T10:56:56.228Z,86.59
2022-11-17T10:59:32.217Z,85.87
2022-11-17T11:02:29.712Z,85.19
2022-11-17T11:05:16.921Z,85.15
2022-11-17T11:07:43.805Z,83.30
2022-11-17T11:10:22.087Z,81.16
2022-11-17T11:13:06.580Z,81.32
2022-11-17T11:15:39.128Z,81.82
2022-11-17T11:18:14.935Z,80.14
2022-11-17T11:21:18.095Z,79.33
2022-11-17T11:24:24.561Z,78.93
2022-11-17T11:27:11.421Z,78.23
2022-11-17T11:30:04.281Z,79.13
2022-11-17T11:33:12.590Z,79.33
2022-11-17T11:35:56.906Z,81.22
2022-11-17T11:38:42.463Z,82.72
2022-11-17T11:41:39.274Z,84.32
2022-11-17T11:44:41.065Z,84.12
2022-11-17T11:47:30.764Z,84.38
2022-11-17T11:50:09.947Z,84.96
2022-11-17T11:52:40.510Z,85.08
2022-11-17T11:55:20.897Z,85.28
2022-11-17T11:58:06.197Z,85.32
2022-11-17T12:00:34.214Z,85.00
2022-11-17T12:03:21.686Z,83.18
2022-11-17T12:06:21.569Z,78.38
2022-11-17T12:09:20.261Z,74.33
2022-11-17T12:12:53.820Z,75.10
2022-11-17T12:15:23.864Z,78.41
2022-11-17T12:18:21.872Z,77.19
2022-11-17T12:21:21.637Z,77.46
2022-11-17T12:23:55.229Z,76.08
2022-11-17T12:26:25.499Z,73.19
2022-11-17T12:29:22.162Z,72.62
2022-11-17T12:31:50.617Z,72.33
2022-11-17T12:34:20.199Z,72.58
2022-11-17T12:37:15.888Z,72.53
2022-11-17T12:39:56.109Z,71.86
2022-11-17T12:42:23.103Z,71.51
2022-11-17T12:44:55.666Z,71.74
2022-11-17T12:47:24.818Z,70.80
2022-11-17T12:50:03.415Z,71.85
2022-11-17T12:52:40.436Z,71.60
2022-11-17T12:55:32.935Z,70.54
2022-11-17T12:58:18.743Z,66.22
2022-11-17T13:01:13.623Z,67.86
2022-11-17T13:04:06.476Z,68.38
2022-11-17T13:06:36.049Z,69.76
2022-11-17T13:09:30.045Z,68.61
2022-11-17T13:12:10.479Z,65.96
2022-11-17T13:14:52.795Z,62.31
2022-11-17T13:17:25.933Z,61.17
2022-11-17T13:20:18.787Z,67.29
2022-11-17T13:23:00.741Z,69.60
2022-11-17T13:25:27.232Z,70.74
2022-11-17T13:27:57.343Z,71.86
2022-11-17T13:30:31.606Z,73.17
2022-11-17T13:33:01.588Z,75.62
2022-11-17T13:35:31.457Z,76.90
2022-11-17T13:38:23.185Z,76.53
2022-11-17T13:40:52.452Z,77.00
2022-11-17T13:43:26.134Z,78.41
2022-11-17T13:45:56.102Z,78.02
2022-11-17T13:48:36.516Z,79.52
2022-11-17T13:51:22.371Z,79.65
2022-11-17T13:54:06.986Z,79.71
2022-11-17T13:56:38.971Z,80.27
2022-11-17T13:59:26.555Z,78.86
2022-11-17T14:02:29.868Z,78.99
2022-11-17T14:05:13.284Z,79.12
2022-11-17T14:07:42.859Z,79.21
2022-11-17T14:10:13.417Z,78.85
2022-11-17T14:12:41.454Z,78.45
2022-11-17T14:15:26.962Z,79.42
2022-11-17T14:17:56.345Z,79.29
2022-11-17T14:20:25.950Z,79.62
2022-11-17T14:23:08.563Z,78.68
2022-11-17T14:25:43.224Z,79.22
2022-11-17T14:28:16.848Z,78.45
2022-11-17T14:30:51.254Z,79.15
2022-11-17T14:33:22.879Z,78.92
2022-11-17T14:36:00.224Z,78.45
2022-11-17T14:38:26.836Z,77.96
2022-11-17T14:40:53.695Z,77.37
2022-11-17T14:43:21.415Z,79.12
2022-11-17T14:45:48.862Z,79.08
2022-11-17T14:48:19.543Z,82.40
2022-11-17T14:50:59.367Z,86.32
2022-11-17T14:53:32.131Z,87.22
2022-11-17T14:56:25.776Z,32.09
2022-11-17T14:58:59.271Z,26.88
2022-11-17T15:01:32.444Z,23.82
2022-11-17T15:04:15.455Z,22.05
2022-11-17T15:06:49.704Z,21.22
2022-11-17T15:09:21.335Z,21.33
2022-11-17T15:12:15.123Z,22.15
2022-11-17T15:14:47.107Z,22.58
2022-11-17T15:17:14.778Z,24.08
2022-11-17T15:19:41.725Z,24.16
2022-11-17T15:22:09.329Z,25.40
2022-11-17T15:24:35.758Z,25.52
2022-11-17T15:27:02.154Z,24.08
2022-11-17T15:29:29.823Z,26.07
2022-11-17T15:32:51.029Z,25.55
2022-11-17T15:35:17.564Z,24.96
2022-11-17T15:37:44.097Z,24.67
2022-11-17T15:40:13.963Z,24.41
2022-11-17T15:42:42.961Z,23.33
2022-11-17T15:45:09.781Z,23.06
2022-11-17T15:47:36.252Z,25.75
2022-11-17T15:50:02.731Z,25.42
2022-11-17T15:52:56.563Z,24.70
2022-11-17T15:55:20.200Z,25.73
2022-11-17T15:57:46.740Z,25.46
2022-11-17T16:00:14.472Z,25.31
2022-11-17T16:02:41.490Z,25.10
2022-11-17T16:05:08.989Z,24.72
2022-11-17T16:07:35.634Z,24.07
2022-11-17T16:10:03.686Z,25.43
2022-11-17T16:12:30.211Z,25.99
2022-11-17T16:14:56.733Z,26.49
2022-11-17T16:17:23.211Z,26.87
2022-11-17T16:19:49.732Z,26.90
2022-11-17T16:22:16.191Z,28.89
2022-11-17T16:24:42.729Z,27.91
2022-11-17T16:27:12.176Z,27.78
2022-11-17T16:29:39.967Z,28.12
2022-11-17T16:32:06.428Z,26.24
2022-11-17T16:34:32.972Z,25.41
2022-11-17T16:36:59.417Z,25.62
2022-11-17T16:39:25.873Z,24.20
2022-11-17T16:41:53.005Z,24.72
2022-11-17T16:44:20.196Z,22.18
2022-11-17T16:46:48.625Z,21.80
2022-11-17T16:49:17.302Z,21.38
2022-11-17T16:52:11.150Z,19.24
2022-11-17T16:54:37.697Z,19.06
2022-11-17T16:57:04.203Z,18.80
2022-11-17T16:59:31.018Z,18.78
2022-11-17T17:01:57.488Z,19.55
2022-11-17T17:04:23.914Z,19.05
2022-11-17T17:06:50.487Z,19.34
2022-11-17T17:09:19.506Z,18.94
2022-11-17T17:11:48.396Z,19.15
2022-11-17T17:14:15.525Z,19.01
2022-11-17T17:16:43.206Z,18.59
2022-11-17T17:19:11.639Z,18.35
2022-11-17T17:21:39.400Z,18.76
2022-11-17T17:24:06.592Z,18.62
2022-11-17T17:26:34.075Z,20.54
2022-11-17T17:29:01.905Z,19.96
2022-11-17T17:31:34.078Z,22.25
2022-11-17T17:34:00.980Z,21.48
2022-11-17T17:36:28.195Z,21.50
2022-11-17T17:38:56.557Z,23.10
2022-11-17T17:41:29.270Z,23.03
2022-11-17T17:44:06.535Z,24.07
2022-11-17T17:46:38.481Z,22.52
2022-11-17T17:49:05.702Z,21.69
2022-11-17T17:51:32.188Z,21.60
2022-11-17T17:54:00.971Z,21.61
2022-11-17T17:56:28.163Z,22.29
2022-11-17T17:58:55.314Z,21.99
2022-11-17T18:01:27.674Z,21.95
2022-11-17T18:04:04.306Z,23.31
2022-11-17T18:06:35.978Z,23.27
2022-11-17T18:09:03.539Z,22.91
2022-11-17T18:11:30.011Z,23.80
2022-11-17T18:13:56.465Z,23.78
2022-11-17T18:16:26.712Z,23.58
2022-11-17T18:18:59.289Z,24.16
2022-11-17T18:21:26.882Z,24.10
2022-11-17T18:23:54.279Z,22.57
2022-11-17T18:26:22.643Z,22.06
2022-11-17T18:29:06.273Z,22.25
2022-11-17T18:31:39.443Z,22.05
2022-11-17T18:34:15.552Z,22.02
2022-11-17T18:36:43.749Z,21.37
2022-11-17T18:39:15.169Z,21.39
2022-11-17T18:41:42.260Z,21.11
2022-11-17T18:44:19.661Z,20.92
2022-11-17T18:46:49.612Z,20.87
2022-11-17T18:49:16.977Z,21.22
2022-11-17T18:52:09.767Z,20.50
2022-11-17T18:54:36.405Z,20.74
2022-11-17T18:57:03.059Z,21.13
2022-11-17T18:59:29.779Z,20.97
2022-11-17T19:02:47.573Z,21.05
2022-11-17T19:05:14.335Z,21.16
2022-11-17T19:07:40.981Z,21.67
2022-11-17T19:10:08.065Z,21.07
2022-11-17T19:13:00.342Z,21.07
2022-11-17T19:15:27.108Z,21.32
2022-11-17T19:17:53.602Z,21.58
2022-11-17T19:20:25.801Z,21.26
2022-11-17T19:22:52.392Z,21.43
2022-11-17T19:25:18.878Z,21.44
2022-11-17T19:27:45.359Z,21.68
2022-11-17T19:30:12.082Z,21.30
2022-11-17T19:32:38.565Z,21.60
2022-11-17T19:35:14.647Z,21.01
2022-11-17T19:37:43.645Z,20.74
2022-11-17T19:40:10.949Z,21.29
2022-11-17T19:43:44.889Z,20.92
2022-11-17T19:46:22.456Z,21.00
2022-11-17T19:48:54.746Z,21.12
2022-11-17T19:51:26.604Z,21.47
2022-11-17T19:54:45.188Z,21.49
2022-11-17T19:57:11.880Z,21.65
2022-11-17T19:59:38.542Z,21.10
2022-11-17T20:02:05.247Z,21.61
2022-11-17T20:04:35.023Z,21.31
2022-11-17T20:07:01.616Z,20.81
2022-11-17T20:09:28.130Z,21.00
2022-11-17T20:11:54.690Z,21.39
2022-11-17T20:14:21.282Z,21.18
2022-11-17T20:16:49.059Z,21.52
2022-11-17T20:19:15.881Z,21.24
2022-11-17T20:21:42.680Z,21.14
2022-11-17T20:24:09.158Z,21.34
2022-11-17T20:26:36.340Z,21.26
2022-11-17T20:29:03.186Z,21.35
2022-11-17T20:31:32.438Z,21.28
2022-11-17T20:34:00.903Z,21.55
2022-11-17T20:36:30.057Z,21.35
2022-11-17T20:39:40.264Z,21.26
2022-11-17T20:42:07.184Z,21.82
2022-11-17T20:44:34.031Z,21.44
2022-11-17T20:47:00.618Z,21.50
2022-11-17T20:49:28.851Z,21.23
2022-11-17T20:51:55.464Z,20.71
2022-11-17T20:54:22.078Z,20.66
2022-11-17T20:56:48.652Z,20.75
2022-11-17T20:59:19.818Z,20.45
2022-11-17T21:01:49.515Z,20.68
2022-11-17T21:04:16.044Z,20.82
2022-11-17T21:06:42.598Z,21.05
2022-11-17T21:09:09.313Z,20.46
2022-11-17T21:11:54.484Z,20.48
2022-11-17T21:14:21.206Z,20.32
2022-11-17T21:16:49.786Z,20.36
2022-11-17T21:19:18.616Z,19.67
2022-11-17T21:21:45.880Z,19.58
2022-11-17T21:24:13.163Z,20.14
2022-11-17T21:26:40.575Z,20.19
2022-11-17T21:29:11.458Z,19.80
2022-11-17T21:31:38.455Z,19.58
2022-11-17T21:34:07.478Z,19.61
2022-11-17T21:36:38.895Z,19.82
2022-11-17T21:39:19.696Z,19.68
2022-11-17T21:41:46.364Z,19.88
2022-11-17T21:44:20.366Z,19.78
2022-11-17T21:49:39.766Z,19.47
2022-11-17T21:52:06.576Z,28.47
2022-11-17T21:54:33.277Z,38.38
2022-11-17T21:57:02.118Z,39.79
2022-11-17T21:59:41.024Z,40.34
2022-11-17T22:02:13.137Z,40.42
2022-11-17T22:04:39.930Z,40.81
2022-11-17T22:07:06.825Z,41.54
2022-11-17T22:09:34.313Z,42.72
2022-11-17T22:12:01.099Z,42.34
2022-11-17T22:14:32.089Z,42.69
2022-11-17T22:16:58.695Z,42.38
2022-11-17T22:19:29.053Z,43.59
2022-11-17T22:21:55.689Z,43.69
2022-11-17T22:24:22.681Z,43.76
2022-11-17T22:26:51.474Z,44.10
2022-11-17T22:29:20.902Z,44.39
2022-11-17T22:31:48.916Z,44.08
2022-11-17T22:34:16.501Z,43.82
2022-11-17T22:36:43.159Z,43.44
2022-11-17T22:39:09.687Z,43.12
2022-11-17T22:41:36.208Z,43.13
2022-11-17T22:44:02.880Z,43.28
2022-11-17T22:46:29.675Z,43.58
2022-11-17T22:48:56.632Z,43.83
2022-11-17T22:51:43.672Z,43.96
2022-11-17T22:54:10.239Z,44.10
2022-11-17T22:56:36.772Z,44.06
2022-11-17T22:59:03.575Z,43.87
